sensor_id;sensor_type;location;lat;lon;timestamp;P1;durP1;ratioP1;P2;durP2;ratioP2
21567;SDS011;10944;42.590;12.630;2023-04-06T00:01:06;25.33;;;13.80;;
21567;SDS011;10944;42.590;12.630;2023-04-06T00:03:35;25.67;;;13.87;;
21567;SDS011;10944;42.590;12.630;2023-04-06T00:06:02;24.20;;;13.27;;
21567;SDS011;10944;42.590;12.630;2023-04-06T00:08:27;25.30;;;13.30;;
21567;SDS011;10944;42.590;12.630;2023-04-06T00:10:53;24.13;;;12.93;;
21567;SDS011;10944;42.590;12.630;2023-04-06T00:13:20;21.37;;;12.47;;
21567;SDS011;10944;42.590;12.630;2023-04-06T00:15:45;24.13;;;13.40;;
21567;SDS011;10944;42.590;12.630;2023-04-06T00:18:11;24.67;;;13.03;;
21567;SDS011;10944;42.590;12.630;2023-04-06T00:20:37;23.47;;;12.87;;
21567;SDS011;10944;42.590;12.630;2023-04-06T00:23:03;23.60;;;12.43;;
21567;SDS011;10944;42.590;12.630;2023-04-06T00:25:28;24.93;;;13.13;;
21567;SDS011;10944;42.590;12.630;2023-04-06T00:27:54;26.27;;;13.43;;
21567;SDS011;10944;42.590;12.630;2023-04-06T00:30:20;23.93;;;13.23;;
21567;SDS011;10944;42.590;12.630;2023-04-06T00:32:46;24.20;;;13.13;;
21567;SDS011;10944;42.590;12.630;2023-04-06T00:35:11;25.17;;;13.37;;
21567;SDS011;10944;42.590;12.630;2023-04-06T00:37:37;21.93;;;12.93;;
21567;SDS011;10944;42.590;12.630;2023-04-06T00:40:03;23.63;;;13.40;;
21567;SDS011;10944;42.590;12.630;2023-04-06T00:42:29;23.00;;;13.13;;
21567;SDS011;10944;42.590;12.630;2023-04-06T00:44:56;22.03;;;12.70;;
21567;SDS011;10944;42.590;12.630;2023-04-06T00:47:23;25.50;;;13.80;;
21567;SDS011;10944;42.590;12.630;2023-04-06T00:49:53;20.17;;;12.40;;
21567;SDS011;10944;42.590;12.630;2023-04-06T00:52:19;22.80;;;13.30;;
21567;SDS011;10944;42.590;12.630;2023-04-06T00:54:45;23.93;;;13.03;;
21567;SDS011;10944;42.590;12.630;2023-04-06T00:57:12;24.43;;;13.43;;
21567;SDS011;10944;42.590;12.630;2023-04-06T00:59:38;25.70;;;14.00;;
21567;SDS011;10944;42.590;12.630;2023-04-06T01:02:04;22.17;;;13.40;;
21567;SDS011;10944;42.590;12.630;2023-04-06T01:04:29;28.10;;;13.50;;
21567;SDS011;10944;42.590;12.630;2023-04-06T01:06:56;22.23;;;12.77;;
21567;SDS011;10944;42.590;12.630;2023-04-06T01:09:22;23.63;;;12.87;;
21567;SDS011;10944;42.590;12.630;2023-04-06T01:11:48;21.90;;;12.97;;
21567;SDS011;10944;42.590;12.630;2023-04-06T01:14:13;26.90;;;13.03;;
21567;SDS011;10944;42.590;12.630;2023-04-06T01:16:40;22.77;;;13.07;;
21567;SDS011;10944;42.590;12.630;2023-04-06T01:19:09;25.13;;;12.93;;
21567;SDS011;10944;42.590;12.630;2023-04-06T01:21:37;24.47;;;13.20;;
21567;SDS011;10944;42.590;12.630;2023-04-06T01:24:03;22.53;;;12.40;;
21567;SDS011;10944;42.590;12.630;2023-04-06T01:26:29;25.80;;;12.73;;
21567;SDS011;10944;42.590;12.630;2023-04-06T01:28:55;22.63;;;12.70;;
21567;SDS011;10944;42.590;12.630;2023-04-06T01:31:21;27.07;;;12.93;;
21567;SDS011;10944;42.590;12.630;2023-04-06T01:33:47;26.40;;;13.07;;
21567;SDS011;10944;42.590;12.630;2023-04-06T01:36:13;21.53;;;12.90;;
21567;SDS011;10944;42.590;12.630;2023-04-06T01:38:40;23.27;;;13.30;;
21567;SDS011;10944;42.590;12.630;2023-04-06T01:41:06;22.00;;;12.70;;
21567;SDS011;10944;42.590;12.630;2023-04-06T01:43:33;23.67;;;13.53;;
21567;SDS011;10944;42.590;12.630;2023-04-06T01:45:59;21.83;;;13.00;;
21567;SDS011;10944;42.590;12.630;2023-04-06T01:48:26;26.77;;;13.53;;
21567;SDS011;10944;42.590;12.630;2023-04-06T01:50:52;21.67;;;13.40;;
21567;SDS011;10944;42.590;12.630;2023-04-06T01:53:18;24.67;;;14.17;;
21567;SDS011;10944;42.590;12.630;2023-04-06T01:55:44;25.10;;;14.17;;
21567;SDS011;10944;42.590;12.630;2023-04-06T01:58:10;26.87;;;15.10;;
21567;SDS011;10944;42.590;12.630;2023-04-06T02:00:36;30.93;;;15.37;;
21567;SDS011;10944;42.590;12.630;2023-04-06T02:03:02;25.53;;;14.73;;
21567;SDS011;10944;42.590;12.630;2023-04-06T02:05:29;28.67;;;15.90;;
21567;SDS011;10944;42.590;12.630;2023-04-06T02:07:56;29.90;;;15.87;;
21567;SDS011;10944;42.590;12.630;2023-04-06T02:10:22;28.50;;;16.07;;
21567;SDS011;10944;42.590;12.630;2023-04-06T02:12:48;30.20;;;16.00;;
21567;SDS011;10944;42.590;12.630;2023-04-06T02:15:14;27.83;;;15.73;;
21567;SDS011;10944;42.590;12.630;2023-04-06T02:17:41;26.87;;;15.13;;
21567;SDS011;10944;42.590;12.630;2023-04-06T02:20:07;28.87;;;15.20;;
21567;SDS011;10944;42.590;12.630;2023-04-06T02:22:34;28.47;;;15.90;;
21567;SDS011;10944;42.590;12.630;2023-04-06T02:25:01;28.53;;;15.80;;
21567;SDS011;10944;42.590;12.630;2023-04-06T02:27:27;29.13;;;15.17;;
21567;SDS011;10944;42.590;12.630;2023-04-06T02:29:53;28.23;;;15.57;;
21567;SDS011;10944;42.590;12.630;2023-04-06T02:32:18;34.97;;;16.13;;
21567;SDS011;10944;42.590;12.630;2023-04-06T02:34:44;29.90;;;15.53;;
21567;SDS011;10944;42.590;12.630;2023-04-06T02:37:10;27.90;;;15.80;;
21567;SDS011;10944;42.590;12.630;2023-04-06T02:39:36;29.33;;;15.97;;
21567;SDS011;10944;42.590;12.630;2023-04-06T02:42:01;27.93;;;16.17;;
21567;SDS011;10944;42.590;12.630;2023-04-06T02:44:27;27.70;;;15.83;;
21567;SDS011;10944;42.590;12.630;2023-04-06T02:46:53;30.67;;;16.17;;
21567;SDS011;10944;42.590;12.630;2023-04-06T02:49:19;27.53;;;15.97;;
21567;SDS011;10944;42.590;12.630;2023-04-06T02:51:44;28.33;;;15.60;;
21567;SDS011;10944;42.590;12.630;2023-04-06T02:54:10;29.33;;;16.93;;
21567;SDS011;10944;42.590;12.630;2023-04-06T02:56:36;28.93;;;16.07;;
21567;SDS011;10944;42.590;12.630;2023-04-06T02:59:01;29.50;;;16.13;;
21567;SDS011;10944;42.590;12.630;2023-04-06T03:01:27;28.90;;;16.07;;
21567;SDS011;10944;42.590;12.630;2023-04-06T03:03:53;16.30;;;8.87;;
21567;SDS011;10944;42.590;12.630;2023-04-06T03:06:18;13.60;;;7.43;;
21567;SDS011;10944;42.590;12.630;2023-04-06T03:08:44;14.90;;;7.03;;
21567;SDS011;10944;42.590;12.630;2023-04-06T03:11:10;14.13;;;6.87;;
21567;SDS011;10944;42.590;12.630;2023-04-06T03:13:36;15.00;;;7.03;;
21567;SDS011;10944;42.590;12.630;2023-04-06T03:16:04;12.50;;;6.13;;
21567;SDS011;10944;42.590;12.630;2023-04-06T03:18:30;13.73;;;6.20;;
21567;SDS011;10944;42.590;12.630;2023-04-06T03:20:56;11.37;;;6.10;;
21567;SDS011;10944;42.590;12.630;2023-04-06T03:23:22;9.33;;;5.60;;
21567;SDS011;10944;42.590;12.630;2023-04-06T03:25:48;11.47;;;5.70;;
21567;SDS011;10944;42.590;12.630;2023-04-06T03:28:14;11.33;;;5.87;;
21567;SDS011;10944;42.590;12.630;2023-04-06T03:30:40;9.00;;;5.47;;
21567;SDS011;10944;42.590;12.630;2023-04-06T03:33:06;10.07;;;5.50;;
21567;SDS011;10944;42.590;12.630;2023-04-06T03:35:32;10.17;;;5.50;;
21567;SDS011;10944;42.590;12.630;2023-04-06T03:37:58;10.33;;;5.43;;
21567;SDS011;10944;42.590;12.630;2023-04-06T03:40:24;11.40;;;5.70;;
21567;SDS011;10944;42.590;12.630;2023-04-06T03:42:50;9.40;;;5.97;;
21567;SDS011;10944;42.590;12.630;2023-04-06T03:45:16;12.53;;;5.53;;
21567;SDS011;10944;42.590;12.630;2023-04-06T03:47:42;9.87;;;5.83;;
21567;SDS011;10944;42.590;12.630;2023-04-06T03:50:07;9.53;;;5.80;;
21567;SDS011;10944;42.590;12.630;2023-04-06T03:52:34;12.00;;;6.00;;
21567;SDS011;10944;42.590;12.630;2023-04-06T03:55:01;8.90;;;5.60;;
21567;SDS011;10944;42.590;12.630;2023-04-06T03:57:27;10.67;;;6.03;;
21567;SDS011;10944;42.590;12.630;2023-04-06T03:59:52;10.47;;;5.37;;
21567;SDS011;10944;42.590;12.630;2023-04-06T04:02:18;9.33;;;5.67;;
21567;SDS011;10944;42.590;12.630;2023-04-06T04:04:44;9.60;;;5.57;;
21567;SDS011;10944;42.590;12.630;2023-04-06T04:07:09;15.00;;;5.70;;
21567;SDS011;10944;42.590;12.630;2023-04-06T04:09:36;11.77;;;5.57;;
21567;SDS011;10944;42.590;12.630;2023-04-06T04:12:02;12.37;;;5.90;;
21567;SDS011;10944;42.590;12.630;2023-04-06T04:14:28;15.83;;;6.20;;
21567;SDS011;10944;42.590;12.630;2023-04-06T04:16:53;9.90;;;5.57;;
21567;SDS011;10944;42.590;12.630;2023-04-06T04:19:19;11.57;;;5.70;;
21567;SDS011;10944;42.590;12.630;2023-04-06T04:21:46;10.63;;;5.87;;
21567;SDS011;10944;42.590;12.630;2023-04-06T04:24:11;8.60;;;5.33;;
21567;SDS011;10944;42.590;12.630;2023-04-06T04:26:38;9.53;;;5.40;;
21567;SDS011;10944;42.590;12.630;2023-04-06T04:29:05;12.23;;;5.27;;
21567;SDS011;10944;42.590;12.630;2023-04-06T04:31:31;10.20;;;5.67;;
21567;SDS011;10944;42.590;12.630;2023-04-06T04:33:57;11.20;;;5.50;;
21567;SDS011;10944;42.590;12.630;2023-04-06T04:36:24;11.10;;;5.57;;
21567;SDS011;10944;42.590;12.630;2023-04-06T04:38:50;10.97;;;5.80;;
21567;SDS011;10944;42.590;12.630;2023-04-06T04:41:16;9.40;;;4.93;;
21567;SDS011;10944;42.590;12.630;2023-04-06T04:43:42;11.30;;;5.63;;
21567;SDS011;10944;42.590;12.630;2023-04-06T04:46:08;12.53;;;5.77;;
21567;SDS011;10944;42.590;12.630;2023-04-06T04:48:34;11.63;;;5.60;;
21567;SDS011;10944;42.590;12.630;2023-04-06T04:51:00;11.73;;;5.23;;
21567;SDS011;10944;42.590;12.630;2023-04-06T04:53:26;9.97;;;5.63;;
21567;SDS011;10944;42.590;12.630;2023-04-06T04:55:52;11.47;;;5.47;;
21567;SDS011;10944;42.590;12.630;2023-04-06T04:58:17;11.13;;;5.50;;
21567;SDS011;10944;42.590;12.630;2023-04-06T05:00:44;11.70;;;5.50;;
21567;SDS011;10944;42.590;12.630;2023-04-06T05:03:13;10.90;;;5.07;;
21567;SDS011;10944;42.590;12.630;2023-04-06T05:05:49;11.20;;;5.47;;
21567;SDS011;10944;42.590;12.630;2023-04-06T05:08:15;9.67;;;5.43;;
21567;SDS011;10944;42.590;12.630;2023-04-06T05:10:41;10.73;;;5.67;;
21567;SDS011;10944;42.590;12.630;2023-04-06T05:13:07;9.73;;;5.27;;
21567;SDS011;10944;42.590;12.630;2023-04-06T05:15:33;14.67;;;6.07;;
21567;SDS011;10944;42.590;12.630;2023-04-06T05:18:05;9.37;;;5.27;;
21567;SDS011;10944;42.590;12.630;2023-04-06T05:20:34;10.47;;;5.50;;
21567;SDS011;10944;42.590;12.630;2023-04-06T05:23:00;11.73;;;5.70;;
21567;SDS011;10944;42.590;12.630;2023-04-06T05:25:26;10.63;;;5.70;;
21567;SDS011;10944;42.590;12.630;2023-04-06T05:27:52;10.07;;;5.43;;
21567;SDS011;10944;42.590;12.630;2023-04-06T05:30:18;11.27;;;5.30;;
21567;SDS011;10944;42.590;12.630;2023-04-06T05:32:45;12.37;;;5.90;;
21567;SDS011;10944;42.590;12.630;2023-04-06T05:35:11;11.77;;;5.50;;
21567;SDS011;10944;42.590;12.630;2023-04-06T05:37:38;12.53;;;5.50;;
21567;SDS011;10944;42.590;12.630;2023-04-06T05:40:04;9.33;;;5.00;;
21567;SDS011;10944;42.590;12.630;2023-04-06T05:42:37;12.07;;;5.60;;
21567;SDS011;10944;42.590;12.630;2023-04-06T05:45:04;12.10;;;5.70;;
21567;SDS011;10944;42.590;12.630;2023-04-06T05:47:30;8.53;;;4.57;;
21567;SDS011;10944;42.590;12.630;2023-04-06T05:49:56;10.67;;;5.43;;
21567;SDS011;10944;42.590;12.630;2023-04-06T05:52:22;9.47;;;5.00;;
21567;SDS011;10944;42.590;12.630;2023-04-06T05:54:47;7.70;;;4.80;;
21567;SDS011;10944;42.590;12.630;2023-04-06T05:57:14;10.40;;;4.97;;
21567;SDS011;10944;42.590;12.630;2023-04-06T05:59:41;11.27;;;4.87;;
21567;SDS011;10944;42.590;12.630;2023-04-06T06:02:07;9.63;;;4.93;;
21567;SDS011;10944;42.590;12.630;2023-04-06T06:04:33;10.73;;;5.47;;
21567;SDS011;10944;42.590;12.630;2023-04-06T06:06:58;7.83;;;4.90;;
21567;SDS011;10944;42.590;12.630;2023-04-06T06:09:25;13.17;;;5.20;;
21567;SDS011;10944;42.590;12.630;2023-04-06T06:11:51;12.90;;;4.80;;
21567;SDS011;10944;42.590;12.630;2023-04-06T06:14:17;11.37;;;5.13;;
21567;SDS011;10944;42.590;12.630;2023-04-06T06:16:42;11.47;;;5.23;;
21567;SDS011;10944;42.590;12.630;2023-04-06T06:19:08;10.53;;;4.53;;
21567;SDS011;10944;42.590;12.630;2023-04-06T06:21:34;10.57;;;4.90;;
21567;SDS011;10944;42.590;12.630;2023-04-06T06:24:00;9.60;;;4.70;;
21567;SDS011;10944;42.590;12.630;2023-04-06T06:26:27;9.23;;;4.40;;
21567;SDS011;10944;42.590;12.630;2023-04-06T06:28:52;9.30;;;4.93;;
21567;SDS011;10944;42.590;12.630;2023-04-06T06:31:18;9.87;;;5.00;;
21567;SDS011;10944;42.590;12.630;2023-04-06T06:33:47;12.80;;;5.30;;
21567;SDS011;10944;42.590;12.630;2023-04-06T06:36:19;10.23;;;5.03;;
21567;SDS011;10944;42.590;12.630;2023-04-06T06:38:45;9.23;;;5.07;;
21567;SDS011;10944;42.590;12.630;2023-04-06T06:41:11;13.40;;;4.97;;
21567;SDS011;10944;42.590;12.630;2023-04-06T06:43:36;10.77;;;4.93;;
21567;SDS011;10944;42.590;12.630;2023-04-06T06:46:02;11.70;;;4.80;;
21567;SDS011;10944;42.590;12.630;2023-04-06T06:48:29;10.50;;;4.73;;
21567;SDS011;10944;42.590;12.630;2023-04-06T06:50:54;10.70;;;4.80;;
21567;SDS011;10944;42.590;12.630;2023-04-06T06:53:20;11.00;;;4.70;;
21567;SDS011;10944;42.590;12.630;2023-04-06T06:55:46;7.47;;;4.63;;
21567;SDS011;10944;42.590;12.630;2023-04-06T06:58:13;14.07;;;4.73;;
21567;SDS011;10944;42.590;12.630;2023-04-06T07:00:40;8.93;;;4.40;;
21567;SDS011;10944;42.590;12.630;2023-04-06T07:03:06;11.50;;;4.50;;
21567;SDS011;10944;42.590;12.630;2023-04-06T07:05:31;9.63;;;4.20;;
21567;SDS011;10944;42.590;12.630;2023-04-06T07:07:57;9.70;;;4.53;;
21567;SDS011;10944;42.590;12.630;2023-04-06T07:10:23;7.82;;;4.22;;
21567;SDS011;10944;42.590;12.630;2023-04-06T07:12:49;8.98;;;4.40;;
21567;SDS011;10944;42.590;12.630;2023-04-06T07:15:15;10.95;;;4.50;;
21567;SDS011;10944;42.590;12.630;2023-04-06T07:17:42;9.60;;;4.20;;
21567;SDS011;10944;42.590;12.630;2023-04-06T07:20:10;9.50;;;4.47;;
21567;SDS011;10944;42.590;12.630;2023-04-06T07:22:37;7.32;;;4.13;;
21567;SDS011;10944;42.590;12.630;2023-04-06T07:25:03;7.25;;;3.90;;
21567;SDS011;10944;42.590;12.630;2023-04-06T07:27:29;11.50;;;4.03;;
21567;SDS011;10944;42.590;12.630;2023-04-06T07:29:55;8.20;;;4.13;;
21567;SDS011;10944;42.590;12.630;2023-04-06T07:32:21;8.27;;;3.88;;
21567;SDS011;10944;42.590;12.630;2023-04-06T07:34:46;8.75;;;4.40;;
21567;SDS011;10944;42.590;12.630;2023-04-06T07:37:12;8.60;;;4.28;;
21567;SDS011;10944;42.590;12.630;2023-04-06T07:39:38;9.68;;;3.90;;
21567;SDS011;10944;42.590;12.630;2023-04-06T07:42:05;9.63;;;3.70;;
21567;SDS011;10944;42.590;12.630;2023-04-06T07:44:31;9.75;;;4.25;;
21567;SDS011;10944;42.590;12.630;2023-04-06T07:46:57;6.72;;;3.47;;
21567;SDS011;10944;42.590;12.630;2023-04-06T07:49:23;8.60;;;3.72;;
21567;SDS011;10944;42.590;12.630;2023-04-06T07:51:52;7.50;;;3.45;;
21567;SDS011;10944;42.590;12.630;2023-04-06T07:54:21;9.80;;;4.03;;
21567;SDS011;10944;42.590;12.630;2023-04-06T07:56:46;8.35;;;4.22;;
21567;SDS011;10944;42.590;12.630;2023-04-06T07:59:12;9.23;;;4.00;;
21567;SDS011;10944;42.590;12.630;2023-04-06T08:01:38;9.00;;;3.70;;
21567;SDS011;10944;42.590;12.630;2023-04-06T08:04:04;10.43;;;4.22;;
21567;SDS011;10944;42.590;12.630;2023-04-06T08:06:30;7.68;;;4.22;;
21567;SDS011;10944;42.590;12.630;2023-04-06T08:08:55;7.03;;;4.00;;
21567;SDS011;10944;42.590;12.630;2023-04-06T08:11:21;6.93;;;3.90;;
21567;SDS011;10944;42.590;12.630;2023-04-06T08:13:47;9.57;;;4.32;;
21567;SDS011;10944;42.590;12.630;2023-04-06T08:16:13;9.93;;;4.78;;
21567;SDS011;10944;42.590;12.630;2023-04-06T08:18:38;9.48;;;4.05;;
21567;SDS011;10944;42.590;12.630;2023-04-06T08:21:04;8.45;;;4.25;;
21567;SDS011;10944;42.590;12.630;2023-04-06T08:23:30;9.88;;;4.55;;
21567;SDS011;10944;42.590;12.630;2023-04-06T08:25:56;9.48;;;4.50;;
21567;SDS011;10944;42.590;12.630;2023-04-06T08:28:22;8.93;;;3.83;;
21567;SDS011;10944;42.590;12.630;2023-04-06T08:30:48;8.10;;;4.20;;
21567;SDS011;10944;42.590;12.630;2023-04-06T08:33:14;11.25;;;4.75;;
21567;SDS011;10944;42.590;12.630;2023-04-06T08:35:40;7.22;;;4.28;;
21567;SDS011;10944;42.590;12.630;2023-04-06T08:38:06;8.32;;;4.43;;
21567;SDS011;10944;42.590;12.630;2023-04-06T08:40:36;7.38;;;3.92;;
21567;SDS011;10944;42.590;12.630;2023-04-06T08:43:06;8.55;;;4.07;;
21567;SDS011;10944;42.590;12.630;2023-04-06T08:45:38;7.68;;;4.13;;
21567;SDS011;10944;42.590;12.630;2023-04-06T08:48:05;8.98;;;4.28;;
21567;SDS011;10944;42.590;12.630;2023-04-06T08:50:32;7.47;;;3.80;;
21567;SDS011;10944;42.590;12.630;2023-04-06T08:52:58;6.57;;;4.05;;
21567;SDS011;10944;42.590;12.630;2023-04-06T08:55:25;42.15;;;22.60;;
21567;SDS011;10944;42.590;12.630;2023-04-06T08:57:51;12.93;;;6.55;;
21567;SDS011;10944;42.590;12.630;2023-04-06T09:00:20;10.30;;;4.60;;
21567;SDS011;10944;42.590;12.630;2023-04-06T09:02:46;9.10;;;4.22;;
21567;SDS011;10944;42.590;12.630;2023-04-06T09:05:14;6.28;;;3.92;;
21567;SDS011;10944;42.590;12.630;2023-04-06T09:07:40;6.93;;;3.50;;
21567;SDS011;10944;42.590;12.630;2023-04-06T09:10:06;5.90;;;3.17;;
21567;SDS011;10944;42.590;12.630;2023-04-06T09:12:33;8.07;;;3.50;;
21567;SDS011;10944;42.590;12.630;2023-04-06T09:14:59;7.63;;;3.20;;
21567;SDS011;10944;42.590;12.630;2023-04-06T09:17:26;7.00;;;3.47;;
21567;SDS011;10944;42.590;12.630;2023-04-06T09:20:00;5.88;;;3.25;;
21567;SDS011;10944;42.590;12.630;2023-04-06T09:22:37;7.68;;;3.65;;
21567;SDS011;10944;42.590;12.630;2023-04-06T09:25:09;9.18;;;3.60;;
21567;SDS011;10944;42.590;12.630;2023-04-06T09:27:42;10.23;;;4.03;;
21567;SDS011;10944;42.590;12.630;2023-04-06T09:30:10;7.43;;;3.60;;
21567;SDS011;10944;42.590;12.630;2023-04-06T09:32:45;9.30;;;3.88;;
21567;SDS011;10944;42.590;12.630;2023-04-06T09:35:15;7.80;;;3.60;;
21567;SDS011;10944;42.590;12.630;2023-04-06T09:37:45;10.10;;;4.50;;
21567;SDS011;10944;42.590;12.630;2023-04-06T09:40:12;6.88;;;3.60;;
21567;SDS011;10944;42.590;12.630;2023-04-06T09:42:42;9.80;;;4.38;;
21567;SDS011;10944;42.590;12.630;2023-04-06T09:45:10;6.68;;;3.47;;
21567;SDS011;10944;42.590;12.630;2023-04-06T09:47:36;8.15;;;4.30;;
21567;SDS011;10944;42.590;12.630;2023-04-06T09:50:05;6.85;;;3.53;;
21567;SDS011;10944;42.590;12.630;2023-04-06T09:52:33;8.43;;;3.42;;
21567;SDS011;10944;42.590;12.630;2023-04-06T09:55:30;8.23;;;3.58;;
21567;SDS011;10944;42.590;12.630;2023-04-06T09:58:09;6.97;;;3.38;;
21567;SDS011;10944;42.590;12.630;2023-04-06T10:00:43;7.68;;;3.78;;
21567;SDS011;10944;42.590;12.630;2023-04-06T10:08:26;7.25;;;3.38;;
21567;SDS011;10944;42.590;12.630;2023-04-06T10:10:54;9.43;;;3.22;;
21567;SDS011;10944;42.590;12.630;2023-04-06T10:13:20;7.03;;;3.60;;
21567;SDS011;10944;42.590;12.630;2023-04-06T10:15:46;6.80;;;3.20;;
21567;SDS011;10944;42.590;12.630;2023-04-06T10:18:13;7.93;;;3.60;;
21567;SDS011;10944;42.590;12.630;2023-04-06T10:20:50;9.48;;;3.20;;
21567;SDS011;10944;42.590;12.630;2023-04-06T10:23:22;6.65;;;3.13;;
21567;SDS011;10944;42.590;12.630;2023-04-06T10:26:01;7.70;;;3.40;;
21567;SDS011;10944;42.590;12.630;2023-04-06T10:28:30;5.60;;;3.22;;
21567;SDS011;10944;42.590;12.630;2023-04-06T10:30:59;6.47;;;3.42;;
21567;SDS011;10944;42.590;12.630;2023-04-06T10:33:26;7.30;;;3.45;;
21567;SDS011;10944;42.590;12.630;2023-04-06T10:35:53;9.38;;;3.28;;
21567;SDS011;10944;42.590;12.630;2023-04-06T10:38:20;5.82;;;3.15;;
21567;SDS011;10944;42.590;12.630;2023-04-06T10:40:47;7.53;;;3.28;;
21567;SDS011;10944;42.590;12.630;2023-04-06T10:43:20;10.27;;;3.30;;
21567;SDS011;10944;42.590;12.630;2023-04-06T10:45:57;6.10;;;3.10;;
21567;SDS011;10944;42.590;12.630;2023-04-06T10:48:35;6.57;;;2.88;;
21567;SDS011;10944;42.590;12.630;2023-04-06T10:51:12;6.38;;;3.08;;
21567;SDS011;10944;42.590;12.630;2023-04-06T10:53:41;5.18;;;2.90;;
21567;SDS011;10944;42.590;12.630;2023-04-06T10:56:12;6.45;;;2.95;;
21567;SDS011;10944;42.590;12.630;2023-04-06T10:58:46;7.72;;;3.17;;
21567;SDS011;10944;42.590;12.630;2023-04-06T11:01:13;6.30;;;2.80;;
21567;SDS011;10944;42.590;12.630;2023-04-06T11:06:21;7.40;;;2.67;;
21567;SDS011;10944;42.590;12.630;2023-04-06T11:08:52;8.10;;;3.03;;
21567;SDS011;10944;42.590;12.630;2023-04-06T11:11:23;4.93;;;2.83;;
21567;SDS011;10944;42.590;12.630;2023-04-06T11:13:54;7.03;;;2.65;;
21567;SDS011;10944;42.590;12.630;2023-04-06T11:16:25;5.88;;;3.15;;
21567;SDS011;10944;42.590;12.630;2023-04-06T11:18:59;8.25;;;3.08;;
21567;SDS011;10944;42.590;12.630;2023-04-06T11:24:16;5.20;;;3.08;;
21567;SDS011;10944;42.590;12.630;2023-04-06T11:26:56;6.47;;;3.00;;
21567;SDS011;10944;42.590;12.630;2023-04-06T11:29:27;4.60;;;2.85;;
21567;SDS011;10944;42.590;12.630;2023-04-06T11:34:25;5.50;;;2.60;;
21567;SDS011;10944;42.590;12.630;2023-04-06T11:36:56;8.43;;;2.55;;
21567;SDS011;10944;42.590;12.630;2023-04-06T11:39:28;5.90;;;2.50;;
21567;SDS011;10944;42.590;12.630;2023-04-06T11:41:57;5.95;;;2.85;;
21567;SDS011;10944;42.590;12.630;2023-04-06T11:47:04;6.88;;;2.80;;
21567;SDS011;10944;42.590;12.630;2023-04-06T11:49:32;4.88;;;2.55;;
21567;SDS011;10944;42.590;12.630;2023-04-06T11:51:59;6.72;;;2.90;;
21567;SDS011;10944;42.590;12.630;2023-04-06T11:54:32;5.57;;;2.90;;
21567;SDS011;10944;42.590;12.630;2023-04-06T11:57:05;6.78;;;2.90;;
21567;SDS011;10944;42.590;12.630;2023-04-06T11:59:32;8.00;;;2.92;;
21567;SDS011;10944;42.590;12.630;2023-04-06T12:01:58;5.93;;;3.10;;
21567;SDS011;10944;42.590;12.630;2023-04-06T12:04:24;6.05;;;2.63;;
21567;SDS011;10944;42.590;12.630;2023-04-06T12:06:50;6.28;;;2.83;;
21567;SDS011;10944;42.590;12.630;2023-04-06T12:09:16;4.78;;;2.70;;
21567;SDS011;10944;42.590;12.630;2023-04-06T12:11:42;4.68;;;2.60;;
21567;SDS011;10944;42.590;12.630;2023-04-06T12:14:08;5.22;;;2.50;;
21567;SDS011;10944;42.590;12.630;2023-04-06T12:16:34;4.75;;;2.63;;
21567;SDS011;10944;42.590;12.630;2023-04-06T12:19:00;5.45;;;3.03;;
21567;SDS011;10944;42.590;12.630;2023-04-06T12:21:27;8.02;;;2.80;;
21567;SDS011;10944;42.590;12.630;2023-04-06T12:23:53;5.25;;;2.60;;
21567;SDS011;10944;42.590;12.630;2023-04-06T12:26:20;5.15;;;2.92;;
21567;SDS011;10944;42.590;12.630;2023-04-06T12:28:46;11.65;;;4.97;;
21567;SDS011;10944;42.590;12.630;2023-04-06T12:31:18;3.78;;;2.28;;
21567;SDS011;10944;42.590;12.630;2023-04-06T12:33:49;4.00;;;2.33;;
21567;SDS011;10944;42.590;12.630;2023-04-06T12:36:16;7.50;;;2.65;;
21567;SDS011;10944;42.590;12.630;2023-04-06T12:38:49;4.60;;;2.58;;
21567;SDS011;10944;42.590;12.630;2023-04-06T12:41:16;4.72;;;2.60;;
21567;SDS011;10944;42.590;12.630;2023-04-06T12:43:43;8.23;;;2.50;;
21567;SDS011;10944;42.590;12.630;2023-04-06T12:46:09;6.03;;;2.47;;
21567;SDS011;10944;42.590;12.630;2023-04-06T12:48:35;5.13;;;2.38;;
21567;SDS011;10944;42.590;12.630;2023-04-06T12:51:02;5.22;;;2.53;;
21567;SDS011;10944;42.590;12.630;2023-04-06T12:53:29;5.35;;;2.40;;
21567;SDS011;10944;42.590;12.630;2023-04-06T12:55:55;9.90;;;5.43;;
21567;SDS011;10944;42.590;12.630;2023-04-06T12:58:22;5.10;;;2.60;;
21567;SDS011;10944;42.590;12.630;2023-04-06T13:00:48;6.97;;;2.78;;
21567;SDS011;10944;42.590;12.630;2023-04-06T13:03:15;6.18;;;2.80;;
21567;SDS011;10944;42.590;12.630;2023-04-06T13:05:44;5.22;;;2.88;;
21567;SDS011;10944;42.590;12.630;2023-04-06T13:08:11;5.82;;;2.70;;
21567;SDS011;10944;42.590;12.630;2023-04-06T13:10:38;7.28;;;2.72;;
21567;SDS011;10944;42.590;12.630;2023-04-06T13:13:08;5.78;;;2.70;;
21567;SDS011;10944;42.590;12.630;2023-04-06T13:15:33;5.88;;;2.60;;
21567;SDS011;10944;42.590;12.630;2023-04-06T13:18:01;5.55;;;2.70;;
21567;SDS011;10944;42.590;12.630;2023-04-06T13:20:27;8.50;;;3.50;;
21567;SDS011;10944;42.590;12.630;2023-04-06T13:22:53;5.07;;;2.80;;
21567;SDS011;10944;42.590;12.630;2023-04-06T13:25:19;7.03;;;2.70;;
21567;SDS011;10944;42.590;12.630;2023-04-06T13:27:45;5.55;;;3.13;;
21567;SDS011;10944;42.590;12.630;2023-04-06T13:30:12;5.22;;;2.78;;
21567;SDS011;10944;42.590;12.630;2023-04-06T13:32:39;5.05;;;2.95;;
21567;SDS011;10944;42.590;12.630;2023-04-06T13:35:05;5.90;;;3.08;;
21567;SDS011;10944;42.590;12.630;2023-04-06T13:37:31;5.72;;;3.30;;
21567;SDS011;10944;42.590;12.630;2023-04-06T13:39:57;6.68;;;2.90;;
21567;SDS011;10944;42.590;12.630;2023-04-06T13:42:23;4.65;;;2.88;;
21567;SDS011;10944;42.590;12.630;2023-04-06T13:44:49;5.53;;;2.90;;
21567;SDS011;10944;42.590;12.630;2023-04-06T13:47:16;7.60;;;4.05;;
21567;SDS011;10944;42.590;12.630;2023-04-06T13:49:42;5.45;;;3.10;;
21567;SDS011;10944;42.590;12.630;2023-04-06T13:52:08;7.57;;;3.25;;
21567;SDS011;10944;42.590;12.630;2023-04-06T13:54:35;4.60;;;2.88;;
21567;SDS011;10944;42.590;12.630;2023-04-06T13:57:01;7.03;;;3.63;;
21567;SDS011;10944;42.590;12.630;2023-04-06T13:59:36;6.40;;;3.28;;
21567;SDS011;10944;42.590;12.630;2023-04-06T14:02:03;4.97;;;3.00;;
21567;SDS011;10944;42.590;12.630;2023-04-06T14:04:30;5.35;;;2.95;;
21567;SDS011;10944;42.590;12.630;2023-04-06T14:06:57;6.13;;;2.80;;
21567;SDS011;10944;42.590;12.630;2023-04-06T14:09:23;5.60;;;2.67;;
21567;SDS011;10944;42.590;12.630;2023-04-06T14:11:49;5.05;;;3.25;;
21567;SDS011;10944;42.590;12.630;2023-04-06T14:14:15;5.60;;;3.20;;
21567;SDS011;10944;42.590;12.630;2023-04-06T14:16:41;5.72;;;3.30;;
21567;SDS011;10944;42.590;12.630;2023-04-06T14:19:14;5.38;;;3.30;;
21567;SDS011;10944;42.590;12.630;2023-04-06T14:21:42;5.25;;;3.10;;
21567;SDS011;10944;42.590;12.630;2023-04-06T14:24:12;4.97;;;3.00;;
21567;SDS011;10944;42.590;12.630;2023-04-06T14:26:39;5.72;;;3.60;;
21567;SDS011;10944;42.590;12.630;2023-04-06T14:29:09;5.97;;;3.30;;
21567;SDS011;10944;42.590;12.630;2023-04-06T14:31:35;5.65;;;3.33;;
21567;SDS011;10944;42.590;12.630;2023-04-06T14:34:01;6.10;;;3.10;;
21567;SDS011;10944;42.590;12.630;2023-04-06T14:36:28;4.60;;;2.95;;
21567;SDS011;10944;42.590;12.630;2023-04-06T14:39:06;7.68;;;3.63;;
21567;SDS011;10944;42.590;12.630;2023-04-06T14:41:33;6.20;;;3.42;;